Cmb Ariane — VRIT7 — position and weather

sailwx.info

Track history (hours):
 
Tides and Currents Weather Stations Pressure Air Temp Water Temp Dewpoint Dewpoint Depression Visibility Wind Speed Wind Dir Waves Ship Positions

Cmb Ariane

Last reported at 2017-Apr-23 22:57 UTC. Time now 2017-Apr-25 12:27 UTC.
Position N 08°07' W 015°06'.

Length 180 m; draft 9.9 m.

Type: Cargo ship. MMSI: 477229600.

Date/timePositionNaut miles runAvg speedWind from/ knotsBaromVisibWave heightAir tempDewpointWater temp
2017-Apr-23 22:57N 08°07' W 015°06'3312.4
2017-Apr-23 20:15N 08°26' W 015°34'312.8
2017-Apr-23 20:00N 08°28' W 015°37'612.8
2017-Apr-23 19:30N 08°31' W 015°42'1012.7
2017-Apr-23 18:41N 08°37' W 015°50'312.4
2017-Apr-23 18:25N 08°39' W 015°53'512.5
2017-Apr-23 18:00N 08°42' W 015°58'1112.4
2017-Apr-23 17:06N 08°49' W 016°07'312.4
2017-Apr-23 16:53N 08°50' W 016°09'612.5
2017-Apr-23 16:22N 08°54' W 016°14'612.5
2017-Apr-23 15:55N 08°57' W 016°19'512.5
2017-Apr-23 15:30N 08°60' W 016°23'612.3
2017-Apr-23 15:00N 09°03' W 016°29'1212.1
2017-Apr-23 13:59N 09°11' W 016°38'1112.4
2017-Apr-23 13:07N 09°21' W 016°43'112.2
2017-Apr-23 13:00N 09°22' W 016°44'  
2017-Apr-19 15:24N 27°38' W 015°13'512.9
2017-Apr-19 15:00N 27°43' W 015°11'713.5
2017-Apr-19 14:30N 27°49' W 015°08'1313.3
2017-Apr-19 13:30N 28°02' W 015°03'612.8
2017-Apr-19 13:00N 28°08' W 015°01'612.5
2017-Apr-19 12:30N 28°13' W 014°58'612.6
2017-Apr-19 12:00N 28°19' W 014°56'612.7
2017-Apr-19 11:30N 28°25' W 014°53'612.5
2017-Apr-19 11:00N 28°31' W 014°51'612.7
2017-Apr-19 10:30N 28°37' W 014°49'712.7
2017-Apr-19 09:59N 28°44' W 014°47'6612.4
2017-Apr-19 04:39N 29°47' W 014°27'412.7
2017-Apr-19 04:18N 29°52' W 014°26'412.8
2017-Apr-19 04:00N 29°55' W 014°25'812.5
2017-Apr-19 03:19N 30°03' W 014°22'2412.4
2017-Apr-19 01:25N 30°26' W 014°15'2012.5
2017-Apr-18 23:49N 30°46' W 014°09'412.6
2017-Apr-18 23:29N 30°50' W 014°07'812.6
2017-Apr-18 22:50N 30°58' W 014°05'412.7
2017-Apr-18 22:30N 31°02' W 014°04'712.9
2017-Apr-18 22:00N 31°08' W 014°02'813.2
2017-Apr-18 21:22N 31°16' W 013°59'513.4
2017-Apr-18 21:00N 31°21' W 013°58'713.0
2017-Apr-18 20:30N 31°27' W 013°56'713.0
2017-Apr-18 19:59N 31°33' W 013°53'713.0
2017-Apr-18 19:29N 31°40' W 013°51'612.9
2017-Apr-18 19:00N 31°46' W 013°49'712.8
2017-Apr-18 18:26N 31°53' W 013°47'2812.6
2017-Apr-18 16:11N 32°20' W 013°38'212.3
2017-Apr-18 16:00N 32°22' W 013°38'712.4
2017-Apr-18 15:27N 32°29' W 013°36'3112.6
2017-Apr-18 13:01N 32°58' W 013°26'012.6
2017-Apr-18 13:00N 32°58' W 013°26'612.4
2017-Apr-18 12:30N 33°04' W 013°24'612.2
2017-Apr-18 12:00N 33°10' W 013°22'612.1
2017-Apr-18 11:30N 33°16' W 013°20'1312.0
2017-Apr-18 10:25N 33°28' W 013°16'612.0
2017-Apr-18 09:54N 33°34' W 013°14'511.9
2017-Apr-18 09:30N 33°39' W 013°12'611.7
2017-Apr-18 09:00N 33°45' W 013°10'611.7
2017-Apr-18 08:30N 33°50' W 013°09'611.9
2017-Apr-18 08:00N 33°56' W 013°07'612.0
2017-Apr-18 07:30N 34°02' W 013°05'612.2
2017-Apr-18 07:00N 34°08' W 013°03'612.3
2017-Apr-18 06:30N 34°14' W 013°01'612.5
2017-Apr-18 06:00N 34°20' W 012°59'612.5
2017-Apr-18 05:30N 34°26' W 012°57'612.6
2017-Apr-18 05:00N 34°32' W 012°55'612.8
2017-Apr-18 04:30N 34°38' W 012°53'612.7
2017-Apr-18 04:00N 34°44' W 012°51'7512.8
2017-Apr-17 22:11N 35°56' W 012°26'212.9
2017-Apr-17 22:00N 35°58' W 012°26'713.0
2017-Apr-17 21:30N 36°04' W 012°24'612.9
2017-Apr-17 21:00N 36°11' W 012°22'2412.8
2017-Apr-17 19:09N 36°33' W 012°14'212.5
2017-Apr-17 18:59N 36°35' W 012°13'612.4
2017-Apr-17 18:30N 36°41' W 012°11'1212.7
2017-Apr-17 17:34N 36°53' W 012°07'113.0
2017-Apr-17 17:30N 36°53' W 012°07'612.8
2017-Apr-17 17:00N 36°60' W 012°05'612.7
2017-Apr-17 16:30N 37°06' W 012°03'612.5
2017-Apr-17 16:00N 37°12' W 012°00'612.5
2017-Apr-17 15:30N 37°18' W 011°58'611.6
2017-Apr-17 15:00N 37°23' W 011°56'611.7
2017-Apr-17 14:30N 37°29' W 011°54'1212.0
2017-Apr-17 13:30N 37°40' W 011°51'611.8
2017-Apr-17 13:01N 37°46' W 011°49'612.2
2017-Apr-17 12:30N 37°52' W 011°46'612.3
2017-Apr-17 12:00N 37°58' W 011°44'612.3
2017-Apr-17 11:30N 38°04' W 011°42'612.7
2017-Apr-17 11:00N 38°10' W 011°40'612.2
2017-Apr-17 10:30N 38°16' W 011°38'612.1
2017-Apr-17 10:00N 38°22' W 011°36'611.8
2017-Apr-17 09:30N 38°27' W 011°34'611.9
2017-Apr-17 09:00N 38°33' W 011°32'612.0
2017-Apr-17 08:30N 38°39' W 011°30'611.8
2017-Apr-17 08:00N 38°45' W 011°28'611.8
2017-Apr-17 07:30N 38°50' W 011°26'612.2
2017-Apr-17 07:00N 38°56' W 011°24'612.2
2017-Apr-17 06:30N 39°02' W 011°22'611.8
2017-Apr-17 06:00N 39°08' W 011°20'611.9
2017-Apr-17 05:30N 39°13' W 011°18'612.1
2017-Apr-17 05:00N 39°19' W 011°16'612.2
2017-Apr-17 04:30N 39°25' W 011°14'712.8
2017-Apr-17 03:56N 39°32' W 011°11'512.6
2017-Apr-17 03:30N 39°37' W 011°09'712.7
2017-Apr-17 02:59N 39°44' W 011°07'11312.7
2017-Apr-16 18:04N 41°33' W 010°28'2812.4
2017-Apr-16 15:50N 41°59' W 010°18'53611.9
2017-Apr-14 18:48N 49°42' W 003°50'310.9
2017-Apr-14 18:28N 49°44' W 003°45'711.3
2017-Apr-14 17:52N 49°48' W 003°36'411.8
2017-Apr-14 17:30N 49°50' W 003°31'612.4
2017-Apr-14 17:00N 49°54' W 003°23'713.0
2017-Apr-14 16:30N 49°57' W 003°14'713.6
2017-Apr-14 16:00N 49°59' W 003°04'714.0
2017-Apr-14 15:29N 50°01' W 002°53'814.4
2017-Apr-14 14:58N 50°03' W 002°41'5612.0
2017-Apr-14 10:15N 50°18' W 001°17'2 9.1
2017-Apr-14 09:59N 50°18' W 001°13'5 8.9
2017-Apr-14 09:24N 50°20' W 001°05'1610.4
2017-Apr-14 07:50N 50°24' W 000°41'412.0
2017-Apr-14 07:28N 50°25' W 000°34'612.7
2017-Apr-14 07:00N 50°27' W 000°25'713.2
2017-Apr-14 06:30N 50°28' W 000°15'713.6
2017-Apr-14 06:00N 50°30' W 000°05'713.7
2017-Apr-14 05:30N 50°32' E 000°06'714.0
2017-Apr-14 05:00N 50°34' E 000°16'714.0
2017-Apr-14 04:31N 50°36' E 000°27'713.4
2017-Apr-14 04:01N 50°39' E 000°37'713.2
2017-Apr-14 03:30N 50°42' E 000°45'612.6
2017-Apr-14 03:00N 50°46' E 000°53'811.7
2017-Apr-14 02:22N 50°49' E 001°04'710.8
2017-Apr-14 01:43N 50°54' E 001°12'310.6
2017-Apr-14 01:26N 50°56' E 001°15'410.0
2017-Apr-14 01:00N 50°60' E 001°20'510.1
2017-Apr-14 00:30N 51°03' E 001°25'611.6
2017-Apr-14 00:00N 51°06' E 001°33'612.4
2017-Apr-13 23:30N 51°11' E 001°40'611.8
2017-Apr-13 23:01N 51°15' E 001°47'  
Track history (hours):
 
Tides and Currents Weather Stations Pressure Air Temp Water Temp Dewpoint Dewpoint Depression Visibility Wind Speed Wind Dir Waves Ship Positions

Cmb Ariane

Last reported at 2017-Apr-23 22:57 UTC. Time now 2017-Apr-25 12:27 UTC.
Position N 08°07' W 015°06'.

Length 180 m; draft 9.9 m.

Type: Cargo ship. MMSI: 477229600.

Date/timePositionNaut miles runAvg speedWind from/ knotsBaromVisibWave heightAir tempDewpointWater temp
2017-Apr-23 22:57N 08°07' W 015°06'3312.4
2017-Apr-23 20:15N 08°26' W 015°34'312.8
2017-Apr-23 20:00N 08°28' W 015°37'612.8
2017-Apr-23 19:30N 08°31' W 015°42'1012.7
2017-Apr-23 18:41N 08°37' W 015°50'312.4
2017-Apr-23 18:25N 08°39' W 015°53'512.5
2017-Apr-23 18:00N 08°42' W 015°58'1112.4
2017-Apr-23 17:06N 08°49' W 016°07'312.4
2017-Apr-23 16:53N 08°50' W 016°09'612.5
2017-Apr-23 16:22N 08°54' W 016°14'612.5
2017-Apr-23 15:55N 08°57' W 016°19'512.5
2017-Apr-23 15:30N 08°60' W 016°23'612.3
2017-Apr-23 15:00N 09°03' W 016°29'1212.1
2017-Apr-23 13:59N 09°11' W 016°38'1112.4
2017-Apr-23 13:07N 09°21' W 016°43'112.2
2017-Apr-23 13:00N 09°22' W 016°44'  
2017-Apr-19 15:24N 27°38' W 015°13'512.9
2017-Apr-19 15:00N 27°43' W 015°11'713.5
2017-Apr-19 14:30N 27°49' W 015°08'1313.3
2017-Apr-19 13:30N 28°02' W 015°03'612.8
2017-Apr-19 13:00N 28°08' W 015°01'612.5
2017-Apr-19 12:30N 28°13' W 014°58'612.6
2017-Apr-19 12:00N 28°19' W 014°56'612.7
2017-Apr-19 11:30N 28°25' W 014°53'612.5
2017-Apr-19 11:00N 28°31' W 014°51'612.7
2017-Apr-19 10:30N 28°37' W 014°49'712.7
2017-Apr-19 09:59N 28°44' W 014°47'6612.4
2017-Apr-19 04:39N 29°47' W 014°27'412.7
2017-Apr-19 04:18N 29°52' W 014°26'412.8
2017-Apr-19 04:00N 29°55' W 014°25'812.5
2017-Apr-19 03:19N 30°03' W 014°22'2412.4
2017-Apr-19 01:25N 30°26' W 014°15'2012.5
2017-Apr-18 23:49N 30°46' W 014°09'412.6
2017-Apr-18 23:29N 30°50' W 014°07'812.6
2017-Apr-18 22:50N 30°58' W 014°05'412.7
2017-Apr-18 22:30N 31°02' W 014°04'712.9
2017-Apr-18 22:00N 31°08' W 014°02'813.2
2017-Apr-18 21:22N 31°16' W 013°59'513.4
2017-Apr-18 21:00N 31°21' W 013°58'713.0
2017-Apr-18 20:30N 31°27' W 013°56'713.0
2017-Apr-18 19:59N 31°33' W 013°53'713.0
2017-Apr-18 19:29N 31°40' W 013°51'612.9
2017-Apr-18 19:00N 31°46' W 013°49'712.8
2017-Apr-18 18:26N 31°53' W 013°47'2812.6
2017-Apr-18 16:11N 32°20' W 013°38'212.3
2017-Apr-18 16:00N 32°22' W 013°38'712.4
2017-Apr-18 15:27N 32°29' W 013°36'3112.6
2017-Apr-18 13:01N 32°58' W 013°26'012.6
2017-Apr-18 13:00N 32°58' W 013°26'612.4
2017-Apr-18 12:30N 33°04' W 013°24'612.2
2017-Apr-18 12:00N 33°10' W 013°22'612.1
2017-Apr-18 11:30N 33°16' W 013°20'1312.0
2017-Apr-18 10:25N 33°28' W 013°16'612.0
2017-Apr-18 09:54N 33°34' W 013°14'511.9
2017-Apr-18 09:30N 33°39' W 013°12'611.7
2017-Apr-18 09:00N 33°45' W 013°10'611.7
2017-Apr-18 08:30N 33°50' W 013°09'611.9
2017-Apr-18 08:00N 33°56' W 013°07'612.0
2017-Apr-18 07:30N 34°02' W 013°05'612.2
2017-Apr-18 07:00N 34°08' W 013°03'612.3
2017-Apr-18 06:30N 34°14' W 013°01'612.5
2017-Apr-18 06:00N 34°20' W 012°59'612.5
2017-Apr-18 05:30N 34°26' W 012°57'612.6
2017-Apr-18 05:00N 34°32' W 012°55'612.8
2017-Apr-18 04:30N 34°38' W 012°53'612.7
2017-Apr-18 04:00N 34°44' W 012°51'7512.8
2017-Apr-17 22:11N 35°56' W 012°26'212.9
2017-Apr-17 22:00N 35°58' W 012°26'713.0
2017-Apr-17 21:30N 36°04' W 012°24'612.9
2017-Apr-17 21:00N 36°11' W 012°22'2412.8
2017-Apr-17 19:09N 36°33' W 012°14'212.5
2017-Apr-17 18:59N 36°35' W 012°13'612.4
2017-Apr-17 18:30N 36°41' W 012°11'1212.7
2017-Apr-17 17:34N 36°53' W 012°07'113.0
2017-Apr-17 17:30N 36°53' W 012°07'612.8
2017-Apr-17 17:00N 36°60' W 012°05'612.7
2017-Apr-17 16:30N 37°06' W 012°03'612.5
2017-Apr-17 16:00N 37°12' W 012°00'612.5
2017-Apr-17 15:30N 37°18' W 011°58'611.6
2017-Apr-17 15:00N 37°23' W 011°56'611.7
2017-Apr-17 14:30N 37°29' W 011°54'1212.0
2017-Apr-17 13:30N 37°40' W 011°51'611.8
2017-Apr-17 13:01N 37°46' W 011°49'612.2
2017-Apr-17 12:30N 37°52' W 011°46'612.3
2017-Apr-17 12:00N 37°58' W 011°44'612.3
2017-Apr-17 11:30N 38°04' W 011°42'612.7
2017-Apr-17 11:00N 38°10' W 011°40'612.2
2017-Apr-17 10:30N 38°16' W 011°38'612.1
2017-Apr-17 10:00N 38°22' W 011°36'611.8
2017-Apr-17 09:30N 38°27' W 011°34'611.9
2017-Apr-17 09:00N 38°33' W 011°32'612.0
2017-Apr-17 08:30N 38°39' W 011°30'611.8
2017-Apr-17 08:00N 38°45' W 011°28'611.8
2017-Apr-17 07:30N 38°50' W 011°26'612.2
2017-Apr-17 07:00N 38°56' W 011°24'612.2
2017-Apr-17 06:30N 39°02' W 011°22'611.8
2017-Apr-17 06:00N 39°08' W 011°20'611.9
2017-Apr-17 05:30N 39°13' W 011°18'612.1
2017-Apr-17 05:00N 39°19' W 011°16'612.2
2017-Apr-17 04:30N 39°25' W 011°14'712.8
2017-Apr-17 03:56N 39°32' W 011°11'512.6
2017-Apr-17 03:30N 39°37' W 011°09'712.7
2017-Apr-17 02:59N 39°44' W 011°07'11312.7
2017-Apr-16 18:04N 41°33' W 010°28'2812.4
2017-Apr-16 15:50N 41°59' W 010°18'53611.9
2017-Apr-14 18:48N 49°42' W 003°50'310.9
2017-Apr-14 18:28N 49°44' W 003°45'711.3
2017-Apr-14 17:52N 49°48' W 003°36'411.8
2017-Apr-14 17:30N 49°50' W 003°31'612.4
2017-Apr-14 17:00N 49°54' W 003°23'713.0
2017-Apr-14 16:30N 49°57' W 003°14'713.6
2017-Apr-14 16:00N 49°59' W 003°04'714.0
2017-Apr-14 15:29N 50°01' W 002°53'814.4
2017-Apr-14 14:58N 50°03' W 002°41'5612.0
2017-Apr-14 10:15N 50°18' W 001°17'2 9.1
2017-Apr-14 09:59N 50°18' W 001°13'5 8.9
2017-Apr-14 09:24N 50°20' W 001°05'1610.4
2017-Apr-14 07:50N 50°24' W 000°41'412.0
2017-Apr-14 07:28N 50°25' W 000°34'612.7
2017-Apr-14 07:00N 50°27' W 000°25'713.2
2017-Apr-14 06:30N 50°28' W 000°15'713.6
2017-Apr-14 06:00N 50°30' W 000°05'713.7
2017-Apr-14 05:30N 50°32' E 000°06'714.0
2017-Apr-14 05:00N 50°34' E 000°16'714.0
2017-Apr-14 04:31N 50°36' E 000°27'713.4
2017-Apr-14 04:01N 50°39' E 000°37'713.2
2017-Apr-14 03:30N 50°42' E 000°45'612.6
2017-Apr-14 03:00N 50°46' E 000°53'811.7
2017-Apr-14 02:22N 50°49' E 001°04'710.8
2017-Apr-14 01:43N 50°54' E 001°12'310.6
2017-Apr-14 01:26N 50°56' E 001°15'410.0
2017-Apr-14 01:00N 50°60' E 001°20'510.1
2017-Apr-14 00:30N 51°03' E 001°25'611.6
2017-Apr-14 00:00N 51°06' E 001°33'612.4
2017-Apr-13 23:30N 51°11' E 001°40'611.8
2017-Apr-13 23:01N 51°15' E 001°47'  

Dump ship's entire track history